Catalonia — 9HWS7 — position and weather

sailwx.info

Track history (hours):
 
Tides and Currents Weather Stations Pressure Air Temp Water Temp Dewpoint Dewpoint Depression Visibility Wind Speed Wind Dir Waves Ship Positions

Catalonia

Last reported at 2016-May-05 07:11 UTC. Time now 2016-May-05 08:35 UTC.
Position N 53°41' E 003°40'.

Length 189 m; draft 10.9 m.

Type: Cargo ship. MMSI: 215929000.

Date/timePositionNaut miles runAvg speedWind from/ knotsBaromVisibWave heightAir tempDewpointWater temp
2016-May-05 07:11N 53°41' E 003°40'1012.1
2016-May-05 06:20N 53°48' E 003°52'1111.8
2016-May-05 05:26N 53°55' E 004°07'1111.7
2016-May-05 04:29N 54°01' E 004°22'1111.7
2016-May-05 03:33N 54°11' E 004°31'1211.8
2016-May-05 02:33N 54°22' E 004°40'1212.0
2016-May-05 01:33N 54°32' E 004°49'11012.1
2016-May-04 16:28N 56°03' E 006°38'13011.7
2016-May-04 05:23N 57°41' E 009°15'2111.7
2016-May-04 03:33N 57°50' E 009°51'1212.0
2016-May-04 02:33N 57°55' E 010°12'1110.6
2016-May-04 01:33N 57°53' E 010°32'1010.5
2016-May-04 00:33N 57°47' E 010°48'1110.9
2016-May-03 23:33N 57°42' E 011°06'1111.3
2016-May-03 22:33N 57°38' E 011°25'9 8.2
2016-May-03 21:29N 57°36' E 011°41'0 0.1
2016-May-03 20:32N 57°36' E 011°41'0 0.0
2016-May-03 19:32N 57°36' E 011°41'0 0.1
2016-May-03 18:32N 57°36' E 011°41'0 0.0
2016-May-03 17:32N 57°36' E 011°41'0 0.0
2016-May-03 16:32N 57°36' E 011°41'0 0.0
2016-May-03 15:32N 57°36' E 011°41'0 0.0
2016-May-03 14:32N 57°36' E 011°41'2 1.5
2016-May-03 13:33N 57°35' E 011°40'9 8.7
2016-May-03 12:33N 57°26' E 011°34'1312.5
2016-May-03 11:33N 57°14' E 011°38'1312.8
2016-May-03 10:33N 57°02' E 011°43'1312.9
2016-May-03 09:33N 56°50' E 011°52'1211.8
2016-May-03 08:33N 56°38' E 011°46'1212.3
2016-May-03 07:33N 56°28' E 011°35'1512.5
2016-May-03 06:21N 56°15' E 011°21'1212.6
2016-May-03 05:26N 56°06' E 011°08'1212.9
2016-May-03 04:31N 55°55' E 010°58'2511.9
2016-May-03 02:24N 55°30' E 010°53'1113.0
2016-May-03 01:34N 55°21' E 011°02'10 9.8
2016-May-03 00:33N 55°11' E 011°02'1110.8
2016-May-02 23:33N 55°00' E 010°59'1111.0
2016-May-02 22:33N 54°50' E 010°50'1010.2
2016-May-02 21:33N 54°40' E 010°49'1111.4
2016-May-02 20:33N 54°37' E 011°08'1413.7
2016-May-02 19:33N 54°31' E 011°29'1313.0
2016-May-02 18:33N 54°26' E 011°50'1212.4
2016-May-02 17:33N 54°27' E 012°11'1212.3
2016-May-02 16:33N 54°38' E 012°20'1312.9
2016-May-02 15:33N 54°45' E 012°39'1212.3
2016-May-02 14:33N 54°51' E 012°58'1212.6
2016-May-02 13:33N 54°55' E 013°18'1312.8
2016-May-02 12:33N 54°59' E 013°39'1312.9
2016-May-02 11:33N 55°04' E 014°00'1212.5
2016-May-02 10:33N 55°13' E 014°15'1312.7
2016-May-02 09:33N 55°23' E 014°29'1212.3
2016-May-02 08:33N 55°30' E 014°47'1312.7
2016-May-02 07:33N 55°35' E 015°08'1212.4
2016-May-02 06:33N 55°39' E 015°28'1312.7
2016-May-02 05:33N 55°43' E 015°50'1212.3
2016-May-02 04:33N 55°46' E 016°11'3812.5
2016-May-02 01:33N 55°55' E 017°16'1312.6
2016-May-02 00:33N 55°58' E 017°38'1412.7
2016-May-01 23:28N 56°05' E 017°59'1112.5
2016-May-01 22:33N 56°12' E 018°16'  
Track history (hours):
 
Tides and Currents Weather Stations Pressure Air Temp Water Temp Dewpoint Dewpoint Depression Visibility Wind Speed Wind Dir Waves Ship Positions

Catalonia

Last reported at 2016-May-05 07:11 UTC. Time now 2016-May-05 08:35 UTC.
Position N 53°41' E 003°40'.

Length 189 m; draft 10.9 m.

Type: Cargo ship. MMSI: 215929000.

Date/timePositionNaut miles runAvg speedWind from/ knotsBaromVisibWave heightAir tempDewpointWater temp
2016-May-05 07:11N 53°41' E 003°40'1012.1
2016-May-05 06:20N 53°48' E 003°52'1111.8
2016-May-05 05:26N 53°55' E 004°07'1111.7
2016-May-05 04:29N 54°01' E 004°22'1111.7
2016-May-05 03:33N 54°11' E 004°31'1211.8
2016-May-05 02:33N 54°22' E 004°40'1212.0
2016-May-05 01:33N 54°32' E 004°49'11012.1
2016-May-04 16:28N 56°03' E 006°38'13011.7
2016-May-04 05:23N 57°41' E 009°15'2111.7
2016-May-04 03:33N 57°50' E 009°51'1212.0
2016-May-04 02:33N 57°55' E 010°12'1110.6
2016-May-04 01:33N 57°53' E 010°32'1010.5
2016-May-04 00:33N 57°47' E 010°48'1110.9
2016-May-03 23:33N 57°42' E 011°06'1111.3
2016-May-03 22:33N 57°38' E 011°25'9 8.2
2016-May-03 21:29N 57°36' E 011°41'0 0.1
2016-May-03 20:32N 57°36' E 011°41'0 0.0
2016-May-03 19:32N 57°36' E 011°41'0 0.1
2016-May-03 18:32N 57°36' E 011°41'0 0.0
2016-May-03 17:32N 57°36' E 011°41'0 0.0
2016-May-03 16:32N 57°36' E 011°41'0 0.0
2016-May-03 15:32N 57°36' E 011°41'0 0.0
2016-May-03 14:32N 57°36' E 011°41'2 1.5
2016-May-03 13:33N 57°35' E 011°40'9 8.7
2016-May-03 12:33N 57°26' E 011°34'1312.5
2016-May-03 11:33N 57°14' E 011°38'1312.8
2016-May-03 10:33N 57°02' E 011°43'1312.9
2016-May-03 09:33N 56°50' E 011°52'1211.8
2016-May-03 08:33N 56°38' E 011°46'1212.3
2016-May-03 07:33N 56°28' E 011°35'1512.5
2016-May-03 06:21N 56°15' E 011°21'1212.6
2016-May-03 05:26N 56°06' E 011°08'1212.9
2016-May-03 04:31N 55°55' E 010°58'2511.9
2016-May-03 02:24N 55°30' E 010°53'1113.0
2016-May-03 01:34N 55°21' E 011°02'10 9.8
2016-May-03 00:33N 55°11' E 011°02'1110.8
2016-May-02 23:33N 55°00' E 010°59'1111.0
2016-May-02 22:33N 54°50' E 010°50'1010.2
2016-May-02 21:33N 54°40' E 010°49'1111.4
2016-May-02 20:33N 54°37' E 011°08'1413.7
2016-May-02 19:33N 54°31' E 011°29'1313.0
2016-May-02 18:33N 54°26' E 011°50'1212.4
2016-May-02 17:33N 54°27' E 012°11'1212.3
2016-May-02 16:33N 54°38' E 012°20'1312.9
2016-May-02 15:33N 54°45' E 012°39'1212.3
2016-May-02 14:33N 54°51' E 012°58'1212.6
2016-May-02 13:33N 54°55' E 013°18'1312.8
2016-May-02 12:33N 54°59' E 013°39'1312.9
2016-May-02 11:33N 55°04' E 014°00'1212.5
2016-May-02 10:33N 55°13' E 014°15'1312.7
2016-May-02 09:33N 55°23' E 014°29'1212.3
2016-May-02 08:33N 55°30' E 014°47'1312.7
2016-May-02 07:33N 55°35' E 015°08'1212.4
2016-May-02 06:33N 55°39' E 015°28'1312.7
2016-May-02 05:33N 55°43' E 015°50'1212.3
2016-May-02 04:33N 55°46' E 016°11'3812.5
2016-May-02 01:33N 55°55' E 017°16'1312.6
2016-May-02 00:33N 55°58' E 017°38'1412.7
2016-May-01 23:28N 56°05' E 017°59'1112.5
2016-May-01 22:33N 56°12' E 018°16'  

Dump ship's entire track history